sensor_id;sensor_type;location;lat;lon;timestamp;P1;durP1;ratioP1;P2;durP2;ratioP2
51981;SDS011;37998;53.416;6.730;2023-06-26T00:00:41;9.32;;;8.40;;
51981;SDS011;37998;53.416;6.730;2023-06-26T00:03:07;11.65;;;8.60;;
51981;SDS011;37998;53.416;6.730;2023-06-26T00:05:33;9.90;;;8.30;;
51981;SDS011;37998;53.416;6.730;2023-06-26T00:07:59;10.25;;;8.85;;
51981;SDS011;37998;53.416;6.730;2023-06-26T00:10:28;10.52;;;8.80;;
51981;SDS011;37998;53.416;6.730;2023-06-26T00:12:54;10.15;;;8.55;;
51981;SDS011;37998;53.416;6.730;2023-06-26T00:15:20;12.93;;;8.45;;
51981;SDS011;37998;53.416;6.730;2023-06-26T00:17:46;10.95;;;8.45;;
51981;SDS011;37998;53.416;6.730;2023-06-26T00:20:12;10.32;;;9.27;;
51981;SDS011;37998;53.416;6.730;2023-06-26T00:22:41;13.20;;;8.88;;
51981;SDS011;37998;53.416;6.730;2023-06-26T00:25:07;10.95;;;8.65;;
51981;SDS011;37998;53.416;6.730;2023-06-26T00:27:33;14.32;;;9.65;;
51981;SDS011;37998;53.416;6.730;2023-06-26T00:29:59;9.80;;;8.50;;
51981;SDS011;37998;53.416;6.730;2023-06-26T00:32:25;10.90;;;8.52;;
51981;SDS011;37998;53.416;6.730;2023-06-26T00:34:51;12.15;;;8.88;;
51981;SDS011;37998;53.416;6.730;2023-06-26T00:37:18;13.63;;;9.77;;
51981;SDS011;37998;53.416;6.730;2023-06-26T00:40:12;10.55;;;9.20;;
51981;SDS011;37998;53.416;6.730;2023-06-26T00:42:38;10.15;;;8.90;;
51981;SDS011;37998;53.416;6.730;2023-06-26T00:45:09;10.93;;;9.05;;
51981;SDS011;37998;53.416;6.730;2023-06-26T00:47:36;11.75;;;9.05;;
51981;SDS011;37998;53.416;6.730;2023-06-26T00:50:02;10.85;;;9.10;;
51981;SDS011;37998;53.416;6.730;2023-06-26T00:52:30;10.52;;;9.43;;
51981;SDS011;37998;53.416;6.730;2023-06-26T00:54:58;10.27;;;9.20;;
51981;SDS011;37998;53.416;6.730;2023-06-26T00:57:24;10.40;;;9.30;;
51981;SDS011;37998;53.416;6.730;2023-06-26T00:59:52;10.95;;;9.55;;
51981;SDS011;37998;53.416;6.730;2023-06-26T01:02:20;10.52;;;9.15;;
51981;SDS011;37998;53.416;6.730;2023-06-26T01:04:48;12.38;;;10.63;;
51981;SDS011;37998;53.416;6.730;2023-06-26T01:07:18;12.13;;;10.13;;
51981;SDS011;37998;53.416;6.730;2023-06-26T01:09:48;11.65;;;10.55;;
51981;SDS011;37998;53.416;6.730;2023-06-26T01:12:14;10.82;;;9.73;;
51981;SDS011;37998;53.416;6.730;2023-06-26T01:14:41;12.10;;;10.20;;
51981;SDS011;37998;53.416;6.730;2023-06-26T01:17:10;13.95;;;10.15;;
51981;SDS011;37998;53.416;6.730;2023-06-26T01:19:44;15.20;;;10.15;;
51981;SDS011;37998;53.416;6.730;2023-06-26T01:24:45;12.45;;;10.25;;
51981;SDS011;37998;53.416;6.730;2023-06-26T01:27:35;13.20;;;10.73;;
51981;SDS011;37998;53.416;6.730;2023-06-26T01:30:02;13.57;;;11.65;;
51981;SDS011;37998;53.416;6.730;2023-06-26T01:32:30;14.30;;;11.15;;
51981;SDS011;37998;53.416;6.730;2023-06-26T01:34:58;13.02;;;11.05;;
51981;SDS011;37998;53.416;6.730;2023-06-26T01:37:27;11.57;;;10.43;;
51981;SDS011;37998;53.416;6.730;2023-06-26T01:39:52;14.05;;;11.02;;
51981;SDS011;37998;53.416;6.730;2023-06-26T01:42:18;13.07;;;11.73;;
51981;SDS011;37998;53.416;6.730;2023-06-26T01:44:45;13.57;;;10.82;;
51981;SDS011;37998;53.416;6.730;2023-06-26T01:47:14;12.60;;;11.30;;
51981;SDS011;37998;53.416;6.730;2023-06-26T01:53:21;12.88;;;11.25;;
51981;SDS011;37998;53.416;6.730;2023-06-26T01:55:33;12.85;;;11.55;;
51981;SDS011;37998;53.416;6.730;2023-06-26T01:58:01;12.77;;;11.43;;
51981;SDS011;37998;53.416;6.730;2023-06-26T02:00:29;12.88;;;11.52;;
51981;SDS011;37998;53.416;6.730;2023-06-26T02:02:57;14.75;;;11.73;;
51981;SDS011;37998;53.416;6.730;2023-06-26T02:05:23;13.65;;;11.93;;
51981;SDS011;37998;53.416;6.730;2023-06-26T02:07:49;13.68;;;11.73;;
51981;SDS011;37998;53.416;6.730;2023-06-26T02:10:16;12.98;;;11.20;;
51981;SDS011;37998;53.416;6.730;2023-06-26T02:12:42;15.45;;;11.88;;
51981;SDS011;37998;53.416;6.730;2023-06-26T02:15:11;12.85;;;11.50;;
51981;SDS011;37998;53.416;6.730;2023-06-26T02:17:38;13.35;;;11.95;;
51981;SDS011;37998;53.416;6.730;2023-06-26T02:20:04;14.18;;;11.88;;
51981;SDS011;37998;53.416;6.730;2023-06-26T02:22:31;20.77;;;12.50;;
51981;SDS011;37998;53.416;6.730;2023-06-26T02:24:57;14.63;;;11.20;;
51981;SDS011;37998;53.416;6.730;2023-06-26T02:27:24;15.00;;;12.63;;
51981;SDS011;37998;53.416;6.730;2023-06-26T02:29:52;12.70;;;11.27;;
51981;SDS011;37998;53.416;6.730;2023-06-26T02:32:18;14.00;;;12.45;;
51981;SDS011;37998;53.416;6.730;2023-06-26T02:34:44;15.73;;;12.02;;
51981;SDS011;37998;53.416;6.730;2023-06-26T02:37:10;14.82;;;12.68;;
51981;SDS011;37998;53.416;6.730;2023-06-26T02:39:39;13.45;;;12.15;;
51981;SDS011;37998;53.416;6.730;2023-06-26T02:42:09;13.23;;;11.82;;
51981;SDS011;37998;53.416;6.730;2023-06-26T02:44:35;12.65;;;11.38;;
51981;SDS011;37998;53.416;6.730;2023-06-26T02:47:02;15.98;;;12.55;;
51981;SDS011;37998;53.416;6.730;2023-06-26T02:49:28;13.20;;;11.85;;
51981;SDS011;37998;53.416;6.730;2023-06-26T02:51:54;13.20;;;11.65;;
51981;SDS011;37998;53.416;6.730;2023-06-26T02:54:26;14.00;;;11.90;;
51981;SDS011;37998;53.416;6.730;2023-06-26T02:56:55;13.88;;;12.52;;
51981;SDS011;37998;53.416;6.730;2023-06-26T02:59:26;13.77;;;12.18;;
51981;SDS011;37998;53.416;6.730;2023-06-26T03:01:53;13.88;;;12.48;;
51981;SDS011;37998;53.416;6.730;2023-06-26T03:04:23;16.02;;;12.50;;
51981;SDS011;37998;53.416;6.730;2023-06-26T03:06:49;13.82;;;12.13;;
51981;SDS011;37998;53.416;6.730;2023-06-26T03:09:15;15.02;;;12.25;;
51981;SDS011;37998;53.416;6.730;2023-06-26T03:11:42;15.63;;;13.20;;
51981;SDS011;37998;53.416;6.730;2023-06-26T03:14:09;13.63;;;12.18;;
51981;SDS011;37998;53.416;6.730;2023-06-26T03:16:36;13.57;;;12.18;;
51981;SDS011;37998;53.416;6.730;2023-06-26T03:19:02;15.50;;;11.63;;
51981;SDS011;37998;53.416;6.730;2023-06-26T03:21:31;13.50;;;12.05;;
51981;SDS011;37998;53.416;6.730;2023-06-26T03:23:59;13.57;;;12.18;;
51981;SDS011;37998;53.416;6.730;2023-06-26T03:26:25;14.88;;;12.80;;
51981;SDS011;37998;53.416;6.730;2023-06-26T03:28:58;12.85;;;11.65;;
51981;SDS011;37998;53.416;6.730;2023-06-26T03:31:24;17.45;;;12.70;;
51981;SDS011;37998;53.416;6.730;2023-06-26T03:33:50;13.82;;;12.40;;
51981;SDS011;37998;53.416;6.730;2023-06-26T03:36:16;13.25;;;11.85;;
51981;SDS011;37998;53.416;6.730;2023-06-26T03:38:42;13.80;;;12.23;;
51981;SDS011;37998;53.416;6.730;2023-06-26T03:41:11;13.85;;;12.40;;
51981;SDS011;37998;53.416;6.730;2023-06-26T03:43:37;14.32;;;12.57;;
51981;SDS011;37998;53.416;6.730;2023-06-26T03:46:13;14.90;;;13.15;;
51981;SDS011;37998;53.416;6.730;2023-06-26T03:48:40;15.25;;;12.77;;
51981;SDS011;37998;53.416;6.730;2023-06-26T03:51:06;14.35;;;12.43;;
51981;SDS011;37998;53.416;6.730;2023-06-26T03:53:33;13.75;;;12.45;;
51981;SDS011;37998;53.416;6.730;2023-06-26T03:55:59;13.45;;;11.85;;
51981;SDS011;37998;53.416;6.730;2023-06-26T03:58:25;13.70;;;12.30;;
51981;SDS011;37998;53.416;6.730;2023-06-26T04:00:52;14.52;;;12.40;;
51981;SDS011;37998;53.416;6.730;2023-06-26T04:03:22;14.68;;;12.60;;
51981;SDS011;37998;53.416;6.730;2023-06-26T04:05:48;12.98;;;11.75;;
51981;SDS011;37998;53.416;6.730;2023-06-26T04:08:14;15.18;;;12.95;;
51981;SDS011;37998;53.416;6.730;2023-06-26T04:10:40;13.55;;;12.18;;
51981;SDS011;37998;53.416;6.730;2023-06-26T04:13:06;13.05;;;11.65;;
51981;SDS011;37998;53.416;6.730;2023-06-26T04:15:32;12.30;;;11.10;;
51981;SDS011;37998;53.416;6.730;2023-06-26T04:17:58;13.48;;;11.70;;
51981;SDS011;37998;53.416;6.730;2023-06-26T04:20:26;12.50;;;11.13;;
51981;SDS011;37998;53.416;6.730;2023-06-26T04:22:52;13.32;;;11.75;;
51981;SDS011;37998;53.416;6.730;2023-06-26T04:25:18;13.57;;;12.18;;
51981;SDS011;37998;53.416;6.730;2023-06-26T04:27:44;13.18;;;11.85;;
51981;SDS011;37998;53.416;6.730;2023-06-26T04:30:10;12.88;;;11.52;;
51981;SDS011;37998;53.416;6.730;2023-06-26T04:32:37;13.85;;;12.35;;
51981;SDS011;37998;53.416;6.730;2023-06-26T04:35:06;14.98;;;11.50;;
51981;SDS011;37998;53.416;6.730;2023-06-26T04:37:33;15.27;;;12.30;;
51981;SDS011;37998;53.416;6.730;2023-06-26T04:39:59;16.60;;;13.10;;
51981;SDS011;37998;53.416;6.730;2023-06-26T04:42:25;12.88;;;11.57;;
51981;SDS011;37998;53.416;6.730;2023-06-26T04:44:51;15.68;;;11.02;;
51981;SDS011;37998;53.416;6.730;2023-06-26T04:47:20;16.42;;;12.52;;
51981;SDS011;37998;53.416;6.730;2023-06-26T04:49:45;16.40;;;11.13;;
51981;SDS011;37998;53.416;6.730;2023-06-26T04:52:12;13.27;;;10.77;;
51981;SDS011;37998;53.416;6.730;2023-06-26T04:54:39;11.98;;;10.48;;
51981;SDS011;37998;53.416;6.730;2023-06-26T04:57:05;12.82;;;10.82;;
51981;SDS011;37998;53.416;6.730;2023-06-26T04:59:31;11.27;;;9.82;;
51981;SDS011;37998;53.416;6.730;2023-06-26T05:01:57;14.20;;;10.68;;
51981;SDS011;37998;53.416;6.730;2023-06-26T05:04:23;12.35;;;10.05;;
51981;SDS011;37998;53.416;6.730;2023-06-26T05:06:49;16.00;;;11.13;;
51981;SDS011;37998;53.416;6.730;2023-06-26T05:09:15;17.70;;;10.65;;
51981;SDS011;37998;53.416;6.730;2023-06-26T05:11:40;15.98;;;10.27;;
51981;SDS011;37998;53.416;6.730;2023-06-26T05:14:06;16.13;;;10.20;;
51981;SDS011;37998;53.416;6.730;2023-06-26T05:16:33;16.45;;;10.27;;
51981;SDS011;37998;53.416;6.730;2023-06-26T05:18:59;14.20;;;10.63;;
51981;SDS011;37998;53.416;6.730;2023-06-26T05:21:25;19.42;;;12.13;;
51981;SDS011;37998;53.416;6.730;2023-06-26T05:23:51;15.13;;;11.95;;
51981;SDS011;37998;53.416;6.730;2023-06-26T05:26:21;18.30;;;11.95;;
51981;SDS011;37998;53.416;6.730;2023-06-26T05:28:47;17.52;;;12.32;;
51981;SDS011;37998;53.416;6.730;2023-06-26T05:31:16;23.10;;;13.45;;
51981;SDS011;37998;53.416;6.730;2023-06-26T05:33:43;17.92;;;11.40;;
51981;SDS011;37998;53.416;6.730;2023-06-26T05:36:13;21.50;;;10.75;;
51981;SDS011;37998;53.416;6.730;2023-06-26T05:38:42;16.15;;;9.52;;
51981;SDS011;37998;53.416;6.730;2023-06-26T05:41:08;16.52;;;7.30;;
51981;SDS011;37998;53.416;6.730;2023-06-26T05:43:34;11.00;;;6.03;;
51981;SDS011;37998;53.416;6.730;2023-06-26T05:46:00;14.20;;;7.07;;
51981;SDS011;37998;53.416;6.730;2023-06-26T05:48:26;16.35;;;6.63;;
51981;SDS011;37998;53.416;6.730;2023-06-26T05:50:52;12.60;;;6.55;;
51981;SDS011;37998;53.416;6.730;2023-06-26T05:53:19;11.68;;;5.82;;
51981;SDS011;37998;53.416;6.730;2023-06-26T05:55:45;17.77;;;5.68;;
51981;SDS011;37998;53.416;6.730;2023-06-26T05:58:11;14.13;;;6.30;;
51981;SDS011;37998;53.416;6.730;2023-06-26T06:00:38;16.77;;;5.65;;
51981;SDS011;37998;53.416;6.730;2023-06-26T06:03:09;17.25;;;5.72;;
51981;SDS011;37998;53.416;6.730;2023-06-26T06:05:38;16.50;;;5.80;;
51981;SDS011;37998;53.416;6.730;2023-06-26T06:08:04;22.13;;;6.00;;
51981;SDS011;37998;53.416;6.730;2023-06-26T06:10:30;16.33;;;5.25;;
51981;SDS011;37998;53.416;6.730;2023-06-26T06:13:05;15.10;;;4.38;;
51981;SDS011;37998;53.416;6.730;2023-06-26T06:15:31;12.55;;;4.90;;
51981;SDS011;37998;53.416;6.730;2023-06-26T06:17:57;12.50;;;4.82;;
51981;SDS011;37998;53.416;6.730;2023-06-26T06:20:24;14.32;;;4.53;;
51981;SDS011;37998;53.416;6.730;2023-06-26T06:22:50;14.02;;;4.55;;
51981;SDS011;37998;53.416;6.730;2023-06-26T06:25:16;13.45;;;3.92;;
51981;SDS011;37998;53.416;6.730;2023-06-26T06:27:42;13.23;;;4.38;;
51981;SDS011;37998;53.416;6.730;2023-06-26T06:30:08;12.98;;;4.05;;
51981;SDS011;37998;53.416;6.730;2023-06-26T06:32:38;10.77;;;3.42;;
51981;SDS011;37998;53.416;6.730;2023-06-26T06:35:04;11.48;;;3.42;;
51981;SDS011;37998;53.416;6.730;2023-06-26T06:37:37;9.98;;;3.35;;
51981;SDS011;37998;53.416;6.730;2023-06-26T06:40:08;11.18;;;3.55;;
51981;SDS011;37998;53.416;6.730;2023-06-26T06:42:35;10.02;;;3.63;;
51981;SDS011;37998;53.416;6.730;2023-06-26T06:45:02;11.82;;;3.50;;
51981;SDS011;37998;53.416;6.730;2023-06-26T06:47:28;7.30;;;2.95;;
51981;SDS011;37998;53.416;6.730;2023-06-26T06:49:54;8.07;;;3.05;;
51981;SDS011;37998;53.416;6.730;2023-06-26T06:52:21;11.50;;;3.00;;
51981;SDS011;37998;53.416;6.730;2023-06-26T06:54:53;8.10;;;2.72;;
51981;SDS011;37998;53.416;6.730;2023-06-26T06:57:20;12.85;;;3.65;;
51981;SDS011;37998;53.416;6.730;2023-06-26T06:59:47;11.65;;;3.25;;
51981;SDS011;37998;53.416;6.730;2023-06-26T07:02:14;11.60;;;3.25;;
51981;SDS011;37998;53.416;6.730;2023-06-26T07:04:42;9.82;;;3.13;;
51981;SDS011;37998;53.416;6.730;2023-06-26T07:07:12;11.32;;;2.65;;
51981;SDS011;37998;53.416;6.730;2023-06-26T07:09:39;11.07;;;2.97;;
51981;SDS011;37998;53.416;6.730;2023-06-26T07:12:05;13.15;;;3.03;;
51981;SDS011;37998;53.416;6.730;2023-06-26T07:14:31;15.43;;;3.28;;
51981;SDS011;37998;53.416;6.730;2023-06-26T07:16:57;8.95;;;3.08;;
51981;SDS011;37998;53.416;6.730;2023-06-26T07:19:23;14.88;;;2.90;;
51981;SDS011;37998;53.416;6.730;2023-06-26T07:21:48;10.13;;;2.78;;
51981;SDS011;37998;53.416;6.730;2023-06-26T07:24:15;10.90;;;3.00;;
51981;SDS011;37998;53.416;6.730;2023-06-26T07:26:41;11.15;;;3.13;;
51981;SDS011;37998;53.416;6.730;2023-06-26T07:29:07;7.50;;;2.97;;
51981;SDS011;37998;53.416;6.730;2023-06-26T07:31:33;12.45;;;2.67;;
51981;SDS011;37998;53.416;6.730;2023-06-26T07:33:59;11.25;;;2.72;;
51981;SDS011;37998;53.416;6.730;2023-06-26T07:36:25;7.47;;;3.33;;
51981;SDS011;37998;53.416;6.730;2023-06-26T07:38:51;10.57;;;2.78;;
51981;SDS011;37998;53.416;6.730;2023-06-26T07:41:17;6.95;;;2.50;;
51981;SDS011;37998;53.416;6.730;2023-06-26T07:43:42;8.40;;;2.50;;
51981;SDS011;37998;53.416;6.730;2023-06-26T07:46:08;8.88;;;3.47;;
51981;SDS011;37998;53.416;6.730;2023-06-26T07:48:34;7.78;;;2.38;;
51981;SDS011;37998;53.416;6.730;2023-06-26T07:51:00;8.02;;;2.33;;
51981;SDS011;37998;53.416;6.730;2023-06-26T07:53:26;11.25;;;2.80;;
51981;SDS011;37998;53.416;6.730;2023-06-26T07:55:52;8.77;;;2.78;;
51981;SDS011;37998;53.416;6.730;2023-06-26T07:58:18;8.15;;;2.63;;
51981;SDS011;37998;53.416;6.730;2023-06-26T08:00:44;6.93;;;2.33;;
51981;SDS011;37998;53.416;6.730;2023-06-26T08:03:09;8.10;;;2.67;;
51981;SDS011;37998;53.416;6.730;2023-06-26T08:05:35;4.35;;;2.22;;
51981;SDS011;37998;53.416;6.730;2023-06-26T08:08:01;10.35;;;2.70;;
51981;SDS011;37998;53.416;6.730;2023-06-26T08:10:31;11.27;;;2.53;;
51981;SDS011;37998;53.416;6.730;2023-06-26T08:13:00;7.60;;;2.45;;
51981;SDS011;37998;53.416;6.730;2023-06-26T08:15:26;10.60;;;2.22;;
51981;SDS011;37998;53.416;6.730;2023-06-26T08:17:51;9.65;;;2.60;;
51981;SDS011;37998;53.416;6.730;2023-06-26T08:20:17;5.47;;;2.80;;
51981;SDS011;37998;53.416;6.730;2023-06-26T08:22:49;6.00;;;2.33;;
51981;SDS011;37998;53.416;6.730;2023-06-26T08:25:16;9.15;;;2.50;;
51981;SDS011;37998;53.416;6.730;2023-06-26T08:27:42;8.32;;;2.20;;
51981;SDS011;37998;53.416;6.730;2023-06-26T08:30:09;6.55;;;2.08;;
51981;SDS011;37998;53.416;6.730;2023-06-26T08:32:36;7.10;;;2.40;;
51981;SDS011;37998;53.416;6.730;2023-06-26T08:35:02;4.80;;;2.20;;
51981;SDS011;37998;53.416;6.730;2023-06-26T08:37:28;7.10;;;2.47;;
51981;SDS011;37998;53.416;6.730;2023-06-26T08:39:54;5.43;;;1.85;;
51981;SDS011;37998;53.416;6.730;2023-06-26T08:42:20;6.47;;;2.45;;
51981;SDS011;37998;53.416;6.730;2023-06-26T08:44:46;5.03;;;2.13;;
51981;SDS011;37998;53.416;6.730;2023-06-26T08:47:12;6.00;;;1.98;;
51981;SDS011;37998;53.416;6.730;2023-06-26T08:52:37;7.15;;;2.13;;
51981;SDS011;37998;53.416;6.730;2023-06-26T08:55:10;8.40;;;2.08;;
51981;SDS011;37998;53.416;6.730;2023-06-26T08:57:39;9.32;;;2.60;;
51981;SDS011;37998;53.416;6.730;2023-06-26T09:00:05;8.27;;;2.38;;
51981;SDS011;37998;53.416;6.730;2023-06-26T09:02:34;4.90;;;2.20;;
51981;SDS011;37998;53.416;6.730;2023-06-26T09:05:04;5.95;;;2.58;;
51981;SDS011;37998;53.416;6.730;2023-06-26T09:07:30;6.53;;;2.00;;
51981;SDS011;37998;53.416;6.730;2023-06-26T09:09:56;4.22;;;1.90;;
51981;SDS011;37998;53.416;6.730;2023-06-26T09:12:22;7.30;;;2.30;;
51981;SDS011;37998;53.416;6.730;2023-06-26T09:14:48;6.25;;;2.05;;
51981;SDS011;37998;53.416;6.730;2023-06-26T09:17:15;5.60;;;1.90;;
51981;SDS011;37998;53.416;6.730;2023-06-26T09:19:44;7.45;;;2.20;;
51981;SDS011;37998;53.416;6.730;2023-06-26T09:22:14;7.15;;;2.53;;
51981;SDS011;37998;53.416;6.730;2023-06-26T09:24:40;6.63;;;2.30;;
51981;SDS011;37998;53.416;6.730;2023-06-26T09:27:07;10.55;;;2.55;;
51981;SDS011;37998;53.416;6.730;2023-06-26T09:29:36;10.93;;;3.30;;
51981;SDS011;37998;53.416;6.730;2023-06-26T09:32:04;5.97;;;2.33;;
51981;SDS011;37998;53.416;6.730;2023-06-26T09:34:33;11.23;;;2.92;;
51981;SDS011;37998;53.416;6.730;2023-06-26T09:36:59;5.80;;;2.53;;
51981;SDS011;37998;53.416;6.730;2023-06-26T09:39:30;5.05;;;2.33;;
51981;SDS011;37998;53.416;6.730;2023-06-26T09:41:56;6.60;;;2.28;;
51981;SDS011;37998;53.416;6.730;2023-06-26T09:44:23;2.92;;;1.85;;
51981;SDS011;37998;53.416;6.730;2023-06-26T09:46:49;5.30;;;2.53;;
51981;SDS011;37998;53.416;6.730;2023-06-26T09:49:15;5.70;;;2.53;;
51981;SDS011;37998;53.416;6.730;2023-06-26T09:51:41;7.95;;;2.63;;
51981;SDS011;37998;53.416;6.730;2023-06-26T09:54:09;3.85;;;2.20;;
51981;SDS011;37998;53.416;6.730;2023-06-26T09:56:36;5.25;;;2.17;;
51981;SDS011;37998;53.416;6.730;2023-06-26T09:59:02;5.25;;;2.42;;
51981;SDS011;37998;53.416;6.730;2023-06-26T10:01:30;5.20;;;2.33;;
51981;SDS011;37998;53.416;6.730;2023-06-26T10:03:57;6.75;;;2.20;;
51981;SDS011;37998;53.416;6.730;2023-06-26T10:06:36;6.82;;;2.95;;
51981;SDS011;37998;53.416;6.730;2023-06-26T10:09:07;6.82;;;2.75;;
51981;SDS011;37998;53.416;6.730;2023-06-26T10:11:37;7.40;;;2.60;;
51981;SDS011;37998;53.416;6.730;2023-06-26T10:14:11;6.60;;;2.22;;
51981;SDS011;37998;53.416;6.730;2023-06-26T10:16:37;4.75;;;2.13;;
51981;SDS011;37998;53.416;6.730;2023-06-26T10:19:08;8.32;;;3.63;;
51981;SDS011;37998;53.416;6.730;2023-06-26T10:21:56;4.35;;;2.03;;
51981;SDS011;37998;53.416;6.730;2023-06-26T10:24:23;6.25;;;2.15;;
51981;SDS011;37998;53.416;6.730;2023-06-26T10:26:54;4.13;;;1.75;;
51981;SDS011;37998;53.416;6.730;2023-06-26T10:29:25;5.13;;;2.20;;
51981;SDS011;37998;53.416;6.730;2023-06-26T10:31:52;7.65;;;2.30;;
51981;SDS011;37998;53.416;6.730;2023-06-26T10:34:22;8.43;;;1.80;;
51981;SDS011;37998;53.416;6.730;2023-06-26T10:36:55;4.65;;;2.08;;
51981;SDS011;37998;53.416;6.730;2023-06-26T10:39:25;6.93;;;2.63;;
51981;SDS011;37998;53.416;6.730;2023-06-26T10:41:51;4.10;;;2.03;;
51981;SDS011;37998;53.416;6.730;2023-06-26T10:44:20;6.47;;;2.20;;
51981;SDS011;37998;53.416;6.730;2023-06-26T10:49:20;8.38;;;2.25;;
51981;SDS011;37998;53.416;6.730;2023-06-26T10:51:51;4.07;;;2.00;;
51981;SDS011;37998;53.416;6.730;2023-06-26T10:54:19;3.80;;;2.20;;
51981;SDS011;37998;53.416;6.730;2023-06-26T10:56:49;5.68;;;2.30;;
51981;SDS011;37998;53.416;6.730;2023-06-26T10:59:28;8.68;;;2.40;;
51981;SDS011;37998;53.416;6.730;2023-06-26T11:04:36;5.35;;;2.38;;
51981;SDS011;37998;53.416;6.730;2023-06-26T11:07:24;9.40;;;2.50;;
51981;SDS011;37998;53.416;6.730;2023-06-26T11:10:08;13.90;;;2.50;;
51981;SDS011;37998;53.416;6.730;2023-06-26T11:12:41;5.70;;;2.22;;
51981;SDS011;37998;53.416;6.730;2023-06-26T11:15:13;7.90;;;2.72;;
51981;SDS011;37998;53.416;6.730;2023-06-26T11:17:41;6.72;;;2.70;;
51981;SDS011;37998;53.416;6.730;2023-06-26T11:20:09;5.68;;;1.95;;
51981;SDS011;37998;53.416;6.730;2023-06-26T11:22:37;6.78;;;2.63;;
51981;SDS011;37998;53.416;6.730;2023-06-26T11:25:04;7.97;;;2.97;;
51981;SDS011;37998;53.416;6.730;2023-06-26T11:27:41;4.00;;;2.15;;
51981;SDS011;37998;53.416;6.730;2023-06-26T11:30:10;8.95;;;2.67;;
51981;SDS011;37998;53.416;6.730;2023-06-26T11:32:47;6.38;;;2.40;;
51981;SDS011;37998;53.416;6.730;2023-06-26T11:35:25;7.43;;;2.67;;
51981;SDS011;37998;53.416;6.730;2023-06-26T11:37:57;8.43;;;3.17;;
51981;SDS011;37998;53.416;6.730;2023-06-26T11:42:58;11.52;;;3.10;;
51981;SDS011;37998;53.416;6.730;2023-06-26T11:45:27;5.15;;;2.60;;
51981;SDS011;37998;53.416;6.730;2023-06-26T11:47:54;12.18;;;2.47;;
51981;SDS011;37998;53.416;6.730;2023-06-26T11:50:21;8.63;;;2.42;;
51981;SDS011;37998;53.416;6.730;2023-06-26T11:52:57;6.75;;;2.97;;
51981;SDS011;37998;53.416;6.730;2023-06-26T11:55:25;10.70;;;3.40;;
51981;SDS011;37998;53.416;6.730;2023-06-26T11:57:55;10.15;;;2.70;;
51981;SDS011;37998;53.416;6.730;2023-06-26T12:00:22;9.85;;;2.92;;
51981;SDS011;37998;53.416;6.730;2023-06-26T12:02:49;5.80;;;2.65;;
51981;SDS011;37998;53.416;6.730;2023-06-26T12:05:16;10.07;;;3.03;;
51981;SDS011;37998;53.416;6.730;2023-06-26T12:07:43;8.10;;;2.90;;
51981;SDS011;37998;53.416;6.730;2023-06-26T12:10:14;10.27;;;2.30;;
51981;SDS011;37998;53.416;6.730;2023-06-26T12:12:41;6.97;;;2.50;;
51981;SDS011;37998;53.416;6.730;2023-06-26T12:15:12;8.38;;;2.22;;
51981;SDS011;37998;53.416;6.730;2023-06-26T12:17:40;8.90;;;2.85;;
51981;SDS011;37998;53.416;6.730;2023-06-26T12:20:16;5.20;;;2.38;;
51981;SDS011;37998;53.416;6.730;2023-06-26T12:22:47;7.88;;;2.47;;
51981;SDS011;37998;53.416;6.730;2023-06-26T12:25:13;6.70;;;2.35;;
51981;SDS011;37998;53.416;6.730;2023-06-26T12:27:40;8.85;;;2.53;;
51981;SDS011;37998;53.416;6.730;2023-06-26T12:30:07;7.32;;;2.50;;
51981;SDS011;37998;53.416;6.730;2023-06-26T12:32:34;6.68;;;2.08;;
51981;SDS011;37998;53.416;6.730;2023-06-26T12:35:07;9.55;;;2.38;;
51981;SDS011;37998;53.416;6.730;2023-06-26T12:37:38;8.18;;;2.42;;
51981;SDS011;37998;53.416;6.730;2023-06-26T12:40:15;6.10;;;1.95;;
51981;SDS011;37998;53.416;6.730;2023-06-26T12:42:49;6.82;;;1.80;;
51981;SDS011;37998;53.416;6.730;2023-06-26T12:45:15;4.68;;;1.42;;
51981;SDS011;37998;53.416;6.730;2023-06-26T12:47:41;3.70;;;1.80;;
51981;SDS011;37998;53.416;6.730;2023-06-26T12:50:07;7.70;;;2.33;;
51981;SDS011;37998;53.416;6.730;2023-06-26T12:52:34;6.22;;;2.13;;
51981;SDS011;37998;53.416;6.730;2023-06-26T12:55:02;6.18;;;2.03;;
51981;SDS011;37998;53.416;6.730;2023-06-26T12:57:30;8.20;;;2.10;;
51981;SDS011;37998;53.416;6.730;2023-06-26T12:59:56;8.40;;;2.33;;
51981;SDS011;37998;53.416;6.730;2023-06-26T13:02:22;5.95;;;2.15;;
51981;SDS011;37998;53.416;6.730;2023-06-26T13:04:48;8.93;;;2.47;;
51981;SDS011;37998;53.416;6.730;2023-06-26T13:07:14;7.25;;;2.30;;
51981;SDS011;37998;53.416;6.730;2023-06-26T13:09:40;10.98;;;2.53;;
51981;SDS011;37998;53.416;6.730;2023-06-26T13:12:06;6.97;;;2.38;;
51981;SDS011;37998;53.416;6.730;2023-06-26T13:14:32;6.70;;;2.30;;
51981;SDS011;37998;53.416;6.730;2023-06-26T13:17:01;7.93;;;2.30;;
51981;SDS011;37998;53.416;6.730;2023-06-26T13:19:28;7.20;;;2.22;;
51981;SDS011;37998;53.416;6.730;2023-06-26T13:21:55;12.93;;;2.65;;
51981;SDS011;37998;53.416;6.730;2023-06-26T13:24:21;5.57;;;2.05;;
51981;SDS011;37998;53.416;6.730;2023-06-26T13:26:47;6.80;;;2.30;;
51981;SDS011;37998;53.416;6.730;2023-06-26T13:29:13;12.60;;;2.58;;
51981;SDS011;37998;53.416;6.730;2023-06-26T13:31:39;6.40;;;2.25;;
51981;SDS011;37998;53.416;6.730;2023-06-26T13:34:05;5.55;;;2.28;;
51981;SDS011;37998;53.416;6.730;2023-06-26T13:36:31;7.00;;;2.20;;
51981;SDS011;37998;53.416;6.730;2023-06-26T13:38:59;9.27;;;2.35;;
51981;SDS011;37998;53.416;6.730;2023-06-26T13:41:25;10.95;;;2.90;;
51981;SDS011;37998;53.416;6.730;2023-06-26T13:43:51;13.18;;;3.03;;
51981;SDS011;37998;53.416;6.730;2023-06-26T13:46:17;10.35;;;2.30;;
51981;SDS011;37998;53.416;6.730;2023-06-26T13:48:44;12.02;;;2.97;;
51981;SDS011;37998;53.416;6.730;2023-06-26T13:51:10;7.95;;;2.30;;
51981;SDS011;37998;53.416;6.730;2023-06-26T13:53:37;10.50;;;2.67;;
51981;SDS011;37998;53.416;6.730;2023-06-26T13:56:03;6.22;;;2.35;;
51981;SDS011;37998;53.416;6.730;2023-06-26T13:58:34;9.95;;;2.72;;
51981;SDS011;37998;53.416;6.730;2023-06-26T14:01:01;9.88;;;2.55;;
51981;SDS011;37998;53.416;6.730;2023-06-26T14:03:28;8.77;;;2.90;;
51981;SDS011;37998;53.416;6.730;2023-06-26T14:05:54;6.63;;;2.22;;
51981;SDS011;37998;53.416;6.730;2023-06-26T14:08:20;8.30;;;2.60;;
51981;SDS011;37998;53.416;6.730;2023-06-26T14:10:46;9.13;;;2.55;;
51981;SDS011;37998;53.416;6.730;2023-06-26T14:13:12;6.80;;;2.42;;
51981;SDS011;37998;53.416;6.730;2023-06-26T14:15:40;5.85;;;1.98;;
51981;SDS011;37998;53.416;6.730;2023-06-26T14:18:10;9.60;;;2.92;;
51981;SDS011;37998;53.416;6.730;2023-06-26T14:20:36;8.10;;;2.50;;
51981;SDS011;37998;53.416;6.730;2023-06-26T14:23:02;6.68;;;2.33;;
51981;SDS011;37998;53.416;6.730;2023-06-26T14:25:28;7.72;;;2.60;;
51981;SDS011;37998;53.416;6.730;2023-06-26T14:27:57;8.38;;;2.63;;
51981;SDS011;37998;53.416;6.730;2023-06-26T14:30:24;6.53;;;2.25;;
51981;SDS011;37998;53.416;6.730;2023-06-26T14:32:50;7.10;;;2.30;;
51981;SDS011;37998;53.416;6.730;2023-06-26T14:35:16;7.55;;;2.85;;
51981;SDS011;37998;53.416;6.730;2023-06-26T14:37:42;8.23;;;2.22;;
51981;SDS011;37998;53.416;6.730;2023-06-26T14:40:09;13.13;;;2.65;;
51981;SDS011;37998;53.416;6.730;2023-06-26T14:42:36;9.57;;;3.08;;
51981;SDS011;37998;53.416;6.730;2023-06-26T14:45:02;10.32;;;2.65;;
51981;SDS011;37998;53.416;6.730;2023-06-26T14:47:29;7.80;;;2.42;;
51981;SDS011;37998;53.416;6.730;2023-06-26T14:49:55;7.53;;;2.15;;
51981;SDS011;37998;53.416;6.730;2023-06-26T14:52:21;6.32;;;2.47;;
51981;SDS011;37998;53.416;6.730;2023-06-26T14:54:47;9.18;;;2.60;;